createdAt,value
2018-02-10T00:00:40.150Z,9.17
2018-02-10T00:03:07.610Z,9.97
2018-02-10T00:05:35.074Z,9.97
2018-02-10T00:08:02.527Z,9.63
2018-02-10T00:10:29.992Z,10.30
2018-02-10T00:12:57.436Z,9.00
2018-02-10T00:15:25.669Z,10.13
2018-02-10T00:17:53.128Z,9.40
2018-02-10T00:20:20.593Z,10.00
2018-02-10T00:22:48.040Z,9.37
2018-02-10T00:25:16.273Z,9.40
2018-02-10T00:27:43.722Z,9.70
2018-02-10T00:30:11.196Z,9.50
2018-02-10T00:32:38.637Z,9.80
2018-02-10T00:35:06.868Z,10.30
2018-02-10T00:37:34.336Z,9.20
2018-02-10T00:40:01.782Z,8.73
2018-02-10T00:42:29.246Z,9.37
2018-02-10T00:44:57.465Z,10.67
2018-02-10T00:47:24.916Z,8.90
2018-02-10T00:49:52.369Z,9.00
2018-02-10T00:52:20.595Z,8.77
2018-02-10T00:54:50.826Z,9.80
2018-02-10T00:57:18.275Z,9.47
2018-02-10T00:59:46.489Z,9.67
2018-02-10T01:02:13.945Z,9.17
2018-02-10T01:04:41.402Z,9.60
2018-02-10T01:07:09.624Z,10.00
2018-02-10T01:09:37.073Z,9.90
2018-02-10T01:12:04.529Z,10.40
2018-02-10T01:14:32.749Z,9.50
2018-02-10T01:17:00.212Z,9.90
2018-02-10T01:19:27.661Z,10.10
2018-02-10T01:21:55.885Z,10.80
2018-02-10T01:24:23.337Z,11.33
2018-02-10T01:26:50.796Z,11.33
2018-02-10T01:29:18.246Z,10.77
2018-02-10T01:31:46.470Z,11.40
2018-02-10T01:34:13.921Z,10.63
2018-02-10T01:36:42.154Z,12.20
2018-02-10T01:39:09.614Z,12.23
2018-02-10T01:41:37.098Z,12.60
2018-02-10T01:44:04.552Z,11.43
2018-02-10T01:46:32.005Z,12.60
2018-02-10T01:48:59.464Z,11.27
2018-02-10T01:51:26.918Z,10.63
2018-02-10T01:53:55.136Z,12.90
2018-02-10T01:56:22.610Z,12.63
2018-02-10T01:58:50.065Z,16.20
2018-02-10T02:01:18.496Z,18.03
2018-02-10T02:03:45.952Z,17.13
2018-02-10T02:06:13.405Z,18.90
2018-02-10T02:08:40.861Z,17.80
2018-02-10T02:11:08.313Z,17.33
2018-02-10T02:13:35.774Z,17.80
2018-02-10T02:16:03.228Z,17.63
2018-02-10T02:18:30.685Z,15.30
2018-02-10T02:20:58.133Z,16.77
2018-02-10T02:23:25.589Z,16.17
2018-02-10T02:25:53.804Z,15.77
2018-02-10T02:28:21.265Z,15.17
2018-02-10T02:30:48.716Z,16.67
2018-02-10T02:33:16.173Z,17.37
2018-02-10T02:35:44.393Z,17.20
2018-02-10T02:38:11.868Z,16.10
2018-02-10T02:40:39.321Z,17.73
2018-02-10T02:43:06.791Z,16.10
2018-02-10T02:45:35.005Z,16.73
2018-02-10T02:48:02.485Z,16.13
2018-02-10T02:50:29.946Z,15.30
2018-02-10T02:52:57.424Z,17.93
2018-02-10T02:55:24.883Z,16.37
2018-02-10T02:57:52.355Z,15.30
2018-02-10T03:00:19.817Z,16.00
2018-02-10T03:02:47.298Z,15.00
2018-02-10T03:05:14.792Z,16.37
2018-02-10T03:07:42.270Z,14.70
2018-02-10T03:10:09.721Z,15.07
2018-02-10T03:12:37.225Z,15.30
2018-02-10T03:15:04.676Z,17.90
2018-02-10T03:17:32.133Z,15.37
2018-02-10T03:19:59.620Z,17.20
2018-02-10T03:22:27.073Z,17.13
2018-02-10T03:24:54.560Z,18.23
2018-02-10T03:27:22.015Z,16.07
2018-02-10T03:29:49.507Z,15.50
2018-02-10T03:32:16.961Z,16.37
2018-02-10T03:34:44.448Z,15.97
2018-02-10T03:37:11.902Z,18.20
2018-02-10T03:39:39.394Z,17.60
2018-02-10T03:42:06.850Z,17.57
2018-02-10T03:44:34.310Z,16.60
2018-02-10T03:47:01.761Z,15.97
2018-02-10T03:49:29.219Z,16.70
2018-02-10T03:51:57.433Z,15.97
2018-02-10T03:54:24.880Z,15.13
2018-02-10T03:56:53.148Z,16.07
2018-02-10T03:59:20.561Z,13.43
2018-02-10T04:01:48.075Z,14.63
2018-02-10T04:04:15.510Z,13.93
2018-02-10T04:06:42.968Z,13.63
2018-02-10T04:09:10.426Z,13.37
2018-02-10T04:11:37.880Z,13.60
2018-02-10T04:14:06.101Z,14.00
2018-02-10T04:16:33.565Z,13.20
2018-02-10T04:19:01.010Z,13.37
2018-02-10T04:21:29.241Z,12.83
2018-02-10T04:23:56.696Z,13.17
2018-02-10T04:26:24.151Z,11.63
2018-02-10T04:28:52.368Z,12.40
2018-02-10T04:31:19.829Z,12.40
2018-02-10T04:33:47.293Z,12.70
2018-02-10T04:36:14.745Z,14.17
2018-02-10T04:38:42.965Z,13.27
2018-02-10T04:41:10.420Z,13.57
2018-02-10T04:43:37.882Z,12.10
2018-02-10T04:46:05.340Z,12.67
2018-02-10T04:48:33.565Z,11.23
2018-02-10T04:51:01.020Z,11.77
2018-02-10T04:53:28.477Z,12.27
2018-02-10T04:55:56.701Z,12.03
2018-02-10T04:58:24.161Z,11.90
2018-02-10T05:00:51.620Z,13.07
2018-02-10T05:03:19.079Z,11.73
2018-02-10T05:05:46.524Z,11.67
2018-02-10T05:08:13.989Z,12.43
2018-02-10T05:10:41.440Z,12.10
2018-02-10T05:13:08.909Z,11.23
2018-02-10T05:15:36.358Z,10.90
2018-02-10T05:18:03.817Z,11.43
2018-02-10T05:20:31.261Z,11.00
2018-02-10T05:22:59.492Z,10.77
2018-02-10T05:25:26.944Z,10.17
2018-02-10T05:27:54.405Z,11.67
2018-02-10T05:30:22.620Z,10.57
2018-02-10T05:32:50.073Z,10.57
2018-02-10T05:35:17.532Z,10.93
2018-02-10T05:37:45.761Z,10.13
2018-02-10T05:40:13.221Z,10.63
2018-02-10T05:42:40.685Z,10.97
2018-02-10T05:45:08.148Z,11.67
2018-02-10T05:47:35.605Z,10.83
2018-02-10T05:50:03.822Z,9.87
2018-02-10T05:52:31.273Z,10.20
2018-02-10T05:54:58.724Z,10.00
2018-02-10T05:57:26.950Z,10.00
2018-02-10T05:59:54.392Z,8.90
2018-02-10T06:02:21.865Z,9.00
2018-02-10T06:04:50.068Z,9.40
2018-02-10T06:07:17.533Z,10.83
2018-02-10T06:09:44.977Z,9.37
2018-02-10T06:12:13.201Z,9.30
2018-02-10T06:14:40.653Z,9.63
2018-02-10T06:17:08.884Z,9.17
2018-02-10T06:19:36.329Z,8.73
2018-02-10T06:22:03.785Z,8.53
2018-02-10T06:24:32.005Z,9.50
2018-02-10T06:26:59.456Z,8.83
2018-02-10T06:29:26.916Z,9.60
2018-02-10T06:31:55.125Z,8.93
2018-02-10T06:34:22.586Z,8.73
2018-02-10T06:36:50.035Z,8.70
2018-02-10T06:39:18.257Z,8.47
2018-02-10T06:41:45.697Z,8.67
2018-02-10T06:44:13.928Z,8.47
2018-02-10T06:46:41.381Z,7.70
2018-02-10T06:49:08.850Z,8.20
2018-02-10T06:51:36.305Z,8.23
2018-02-10T06:54:03.754Z,7.57
2018-02-10T06:56:31.974Z,7.97
2018-02-10T06:58:59.417Z,7.60
2018-02-10T07:01:27.641Z,8.10
2018-02-10T07:03:55.101Z,7.60
2018-02-10T07:06:22.590Z,8.60
2018-02-10T07:08:49.998Z,7.77
2018-02-10T07:11:17.448Z,8.10
2018-02-10T07:13:44.896Z,8.00
2018-02-10T07:16:12.401Z,7.50
2018-02-10T07:18:39.810Z,7.77
2018-02-10T07:21:08.032Z,6.20
2018-02-10T07:23:35.496Z,7.50
2018-02-10T07:26:02.946Z,8.37
2018-02-10T07:28:30.402Z,7.53
2018-02-10T07:30:57.852Z,8.60
2018-02-10T07:33:25.317Z,7.90
2018-02-10T07:35:52.777Z,7.67
2018-02-10T07:38:20.232Z,8.23
2018-02-10T07:40:47.689Z,8.03
2018-02-10T07:43:15.150Z,7.60
2018-02-10T07:45:42.694Z,7.67
2018-02-10T07:48:10.149Z,8.03
2018-02-10T07:50:37.607Z,8.43
2018-02-10T07:53:05.057Z,7.37
2018-02-10T07:55:32.524Z,8.40
2018-02-10T07:57:59.977Z,10.30
2018-02-10T08:00:27.448Z,8.90
2018-02-10T08:02:54.894Z,8.40
2018-02-10T08:05:23.116Z,7.83
2018-02-10T08:07:50.566Z,8.30
2018-02-10T08:10:18.021Z,8.63
2018-02-10T08:12:46.257Z,7.73
2018-02-10T08:15:13.726Z,7.93
2018-02-10T08:17:41.173Z,9.03
2018-02-10T08:20:08.637Z,8.30
2018-02-10T08:22:36.081Z,7.70
2018-02-10T08:25:04.309Z,7.70
2018-02-10T08:27:31.752Z,8.50
2018-02-10T08:30:00.053Z,7.30
2018-02-10T08:32:28.248Z,7.80
2018-02-10T08:34:55.725Z,7.70
2018-02-10T08:37:23.193Z,7.77
2018-02-10T08:39:50.665Z,6.40
2018-02-10T08:42:18.141Z,7.23
2018-02-10T08:44:45.588Z,7.43
2018-02-10T08:47:13.817Z,8.33
2018-02-10T08:49:41.282Z,7.33
2018-02-10T08:52:08.741Z,7.07
2018-02-10T08:54:36.188Z,7.50
2018-02-10T08:57:04.484Z,7.20
2018-02-10T08:59:31.928Z,7.00
2018-02-10T09:01:59.385Z,6.57
2018-02-10T09:04:26.827Z,7.10
2018-02-10T09:06:54.285Z,7.13
2018-02-10T09:09:21.744Z,7.33
2018-02-10T09:11:49.198Z,7.40
2018-02-10T09:14:17.410Z,7.50
2018-02-10T09:16:44.864Z,7.63
2018-02-10T09:19:13.084Z,6.80
2018-02-10T09:21:40.541Z,8.30
2018-02-10T09:24:07.985Z,6.90
2018-02-10T09:26:36.209Z,7.10
2018-02-10T09:29:03.655Z,6.60
2018-02-10T09:31:31.109Z,7.10
2018-02-10T09:33:59.321Z,6.50
2018-02-10T09:36:26.783Z,7.23
2018-02-10T09:38:55.001Z,7.57
2018-02-10T09:41:22.624Z,7.53
2018-02-10T09:43:50.090Z,7.77
2018-02-10T09:46:17.554Z,9.87
2018-02-10T09:48:45.009Z,8.57
2018-02-10T09:51:12.465Z,7.67
2018-02-10T09:53:41.696Z,6.80
2018-02-10T09:56:09.149Z,8.00
2018-02-10T09:58:36.621Z,7.27
2018-02-10T10:01:04.076Z,6.70
2018-02-10T10:03:31.543Z,6.10
2018-02-10T10:05:59.022Z,7.33
2018-02-10T10:08:30.216Z,6.20
2018-02-10T10:10:57.678Z,6.80
2018-02-10T10:13:25.137Z,7.13
2018-02-10T10:15:52.598Z,7.27
2018-02-10T10:18:20.049Z,7.10
2018-02-10T10:20:47.509Z,6.97
2018-02-10T10:23:14.961Z,6.83
2018-02-10T10:25:43.177Z,7.70
2018-02-10T10:28:10.646Z,6.90
2018-02-10T10:30:38.102Z,6.83
2018-02-10T10:33:06.324Z,7.77
2018-02-10T10:35:33.785Z,6.93
2018-02-10T10:38:01.242Z,7.10
2018-02-10T10:40:28.697Z,6.37
2018-02-10T10:42:56.910Z,6.60
2018-02-10T10:45:24.390Z,7.50
2018-02-10T10:47:51.924Z,7.83
2018-02-10T10:50:20.152Z,7.97
2018-02-10T10:52:48.074Z,7.80
2018-02-10T10:55:15.559Z,8.53
2018-02-10T10:57:43.042Z,8.60
2018-02-10T11:00:11.279Z,9.00
2018-02-10T11:02:39.158Z,9.07
2018-02-10T11:05:06.614Z,9.33
2018-02-10T11:07:34.085Z,8.70
2018-02-10T11:10:01.548Z,8.93
2018-02-10T11:12:29.001Z,8.87
2018-02-10T11:14:57.232Z,9.70
2018-02-10T11:17:24.674Z,9.03
2018-02-10T11:19:52.128Z,8.50
2018-02-10T11:22:20.360Z,7.67
2018-02-10T11:24:48.210Z,7.67
2018-02-10T11:27:15.662Z,8.93
2018-02-10T11:29:43.886Z,9.50
2018-02-10T11:32:11.338Z,7.63
2018-02-10T11:34:38.800Z,7.03
2018-02-10T11:37:06.256Z,8.20
2018-02-10T11:39:34.481Z,7.53
2018-02-10T11:42:01.922Z,7.43
2018-02-10T11:44:30.159Z,7.60
2018-02-10T11:46:57.622Z,8.33
2018-02-10T11:49:25.082Z,8.13
2018-02-10T11:51:53.228Z,7.70
2018-02-10T11:54:20.703Z,8.40
2018-02-10T11:56:48.144Z,7.80
2018-02-10T11:59:15.610Z,9.13
2018-02-10T12:01:43.060Z,8.30
2018-02-10T12:04:10.519Z,7.60
2018-02-10T12:06:37.978Z,8.20
2018-02-10T12:09:05.460Z,7.47
2018-02-10T12:11:32.911Z,7.17
2018-02-10T12:14:00.371Z,7.03
2018-02-10T12:16:28.601Z,7.03
2018-02-10T12:18:56.058Z,10.30
2018-02-10T12:21:23.520Z,7.80
2018-02-10T12:23:51.005Z,8.20
2018-02-10T12:26:18.460Z,9.10
2018-02-10T12:28:46.878Z,8.70
2018-02-10T12:31:14.335Z,7.27
2018-02-10T12:33:41.861Z,7.60
2018-02-10T12:36:09.329Z,8.50
2018-02-10T12:38:36.865Z,10.40
2018-02-10T12:41:04.317Z,9.60
2018-02-10T12:43:31.800Z,8.37
2018-02-10T12:45:59.243Z,7.53
2018-02-10T12:48:33.225Z,8.13
2018-02-10T12:51:00.719Z,9.13
2018-02-10T12:53:28.161Z,10.30
2018-02-10T12:55:55.613Z,9.03
2018-02-10T12:58:23.105Z,9.27
2018-02-10T13:00:50.548Z,7.87
2018-02-10T13:03:18.021Z,8.60
2018-02-10T13:05:45.507Z,8.07
2018-02-10T13:08:12.977Z,8.03
2018-02-10T13:10:40.435Z,8.70
2018-02-10T13:13:07.920Z,7.30
2018-02-10T13:15:35.383Z,8.53
2018-02-10T13:18:02.860Z,7.55
2018-02-10T13:20:30.313Z,8.00
2018-02-10T13:22:57.807Z,8.23
2018-02-10T13:25:27.157Z,8.27
2018-02-10T13:27:55.406Z,9.43
2018-02-10T13:30:22.864Z,8.90
2018-02-10T13:32:50.340Z,8.70
2018-02-10T13:35:17.788Z,8.00
2018-02-10T13:37:45.276Z,8.53
2018-02-10T13:40:12.761Z,8.00
2018-02-10T13:42:40.283Z,7.97
2018-02-10T13:45:08.502Z,8.40
2018-02-10T13:47:35.992Z,8.23
2018-02-10T13:50:03.459Z,9.43
2018-02-10T13:52:30.941Z,9.47
2018-02-10T13:54:59.097Z,8.07
2018-02-10T13:57:26.584Z,9.10
2018-02-10T13:59:54.033Z,8.17
2018-02-10T14:02:22.381Z,8.90
2018-02-10T14:04:49.828Z,10.60
2018-02-10T14:07:17.325Z,9.27
2018-02-10T14:09:44.778Z,8.50
2018-02-10T14:12:12.252Z,7.07
2018-02-10T14:14:39.698Z,7.40
2018-02-10T14:17:07.165Z,7.90
2018-02-10T14:19:34.638Z,8.67
2018-02-10T14:22:02.110Z,8.10
2018-02-10T14:24:30.469Z,15.90
2018-02-10T14:26:57.936Z,13.17
2018-02-10T14:29:26.148Z,8.40
2018-02-10T14:31:53.613Z,7.77
2018-02-10T14:34:21.081Z,10.50
2018-02-10T14:36:48.579Z,9.90
2018-02-10T14:39:16.055Z,8.77
2018-02-10T14:41:43.559Z,8.70
2018-02-10T14:44:11.036Z,8.60
2018-02-10T14:46:39.254Z,9.13
2018-02-10T14:49:06.736Z,8.00
2018-02-10T14:51:34.236Z,9.40
2018-02-10T14:54:01.697Z,8.87
2018-02-10T14:56:29.154Z,7.60
2018-02-10T14:58:56.630Z,7.80
2018-02-10T15:01:24.078Z,7.33
2018-02-10T15:03:51.548Z,8.60
2018-02-10T15:06:19.365Z,8.50
2018-02-10T15:08:46.840Z,8.30
2018-02-10T15:11:14.293Z,8.13
2018-02-10T15:13:41.775Z,7.70
2018-02-10T15:16:09.242Z,7.90
2018-02-10T15:18:36.708Z,7.47
2018-02-10T15:21:04.233Z,8.70
2018-02-10T15:23:32.473Z,6.67
2018-02-10T15:25:59.928Z,7.00
2018-02-10T15:28:27.412Z,9.20
2018-02-10T15:31:06.731Z,7.37
2018-02-10T15:33:45.880Z,7.13
2018-02-10T15:36:13.336Z,6.40
2018-02-10T15:38:41.592Z,7.20
2018-02-10T15:41:09.053Z,6.70
2018-02-10T15:43:36.521Z,6.63
2018-02-10T15:46:03.970Z,6.97
2018-02-10T15:48:31.435Z,7.27
2018-02-10T15:50:59.769Z,7.00
2018-02-10T15:53:27.227Z,6.23
2018-02-10T15:55:54.718Z,5.90
2018-02-10T15:58:22.160Z,6.50
2018-02-10T16:00:49.609Z,5.80
2018-02-10T16:03:17.057Z,6.20
2018-02-10T16:05:44.513Z,6.10
2018-02-10T16:08:12.729Z,7.50
2018-02-10T16:10:40.189Z,6.20
2018-02-10T16:13:07.643Z,6.50
2018-02-10T16:15:35.864Z,5.70
2018-02-10T16:18:03.317Z,5.80
2018-02-10T16:20:31.538Z,6.20
2018-02-10T16:22:58.990Z,5.70
2018-02-10T16:25:26.446Z,5.30
2018-02-10T16:27:54.664Z,5.30
2018-02-10T16:30:22.112Z,5.70
2018-02-10T16:32:49.589Z,5.83
2018-02-10T16:35:17.044Z,5.63
2018-02-10T16:37:45.257Z,5.27
2018-02-10T16:40:12.721Z,5.50
2018-02-10T16:42:40.184Z,4.83
2018-02-10T16:45:07.675Z,5.10
2018-02-10T16:47:35.134Z,5.13
2018-02-10T16:50:02.598Z,5.23
2018-02-10T16:52:30.028Z,5.93
2018-02-10T16:54:57.482Z,6.83
2018-02-10T16:57:24.940Z,8.03
2018-02-10T16:59:52.397Z,7.37
2018-02-10T17:02:19.864Z,7.60
2018-02-10T17:04:47.313Z,5.63
2018-02-10T17:07:15.522Z,7.20
2018-02-10T17:09:42.977Z,6.37
2018-02-10T17:12:10.449Z,5.53
2018-02-10T17:14:37.901Z,7.00
2018-02-10T17:17:06.126Z,4.80
2018-02-10T17:19:33.570Z,4.73
2018-02-10T17:22:01.830Z,6.30
2018-02-10T17:24:29.281Z,11.80
2018-02-10T17:26:56.741Z,11.07
2018-02-10T17:29:24.233Z,9.63
2018-02-10T17:31:51.685Z,7.43
2018-02-10T17:34:19.146Z,10.30
2018-02-10T17:36:46.604Z,7.80
2018-02-10T17:39:14.049Z,7.60
2018-02-10T17:41:42.270Z,7.20
2018-02-10T17:44:09.729Z,8.00
2018-02-10T17:46:37.181Z,10.77
2018-02-10T17:49:04.632Z,14.20
2018-02-10T17:51:32.093Z,47.67
2018-02-10T17:53:59.549Z,12.60
2018-02-10T17:56:26.998Z,7.20
2018-02-10T17:58:54.455Z,8.77
2018-02-10T18:01:21.918Z,7.77
2018-02-10T18:03:49.370Z,7.80
2018-02-10T18:06:17.580Z,7.50
2018-02-10T18:08:45.027Z,7.40
2018-02-10T18:11:13.304Z,7.17
2018-02-10T18:13:40.745Z,7.20
2018-02-10T18:16:08.204Z,9.33
2018-02-10T18:18:36.015Z,8.47
2018-02-10T18:21:03.461Z,10.40
2018-02-10T18:23:30.914Z,9.23
2018-02-10T18:25:58.376Z,8.70
2018-02-10T18:28:25.826Z,8.43
2018-02-10T18:30:54.045Z,8.10
2018-02-10T18:33:21.510Z,7.50
2018-02-10T18:35:48.952Z,8.57
2018-02-10T18:38:17.181Z,7.47
2018-02-10T18:40:44.629Z,5.80
2018-02-10T18:43:12.085Z,5.90
2018-02-10T18:45:40.313Z,8.20
2018-02-10T18:48:07.766Z,6.80
2018-02-10T18:50:35.204Z,6.10
2018-02-10T18:53:03.429Z,6.60
2018-02-10T18:55:30.888Z,6.60
2018-02-10T18:57:58.345Z,6.57
2018-02-10T19:00:25.810Z,5.70
2018-02-10T19:02:54.043Z,7.07
2018-02-10T19:05:21.491Z,5.93
2018-02-10T19:07:48.949Z,6.83
2018-02-10T19:10:17.157Z,6.27
2018-02-10T19:12:44.620Z,5.60
2018-02-10T19:15:12.064Z,5.80
2018-02-10T19:17:40.281Z,5.13
2018-02-10T19:20:08.497Z,7.77
2018-02-10T19:22:35.949Z,6.00
2018-02-10T19:25:03.405Z,6.10
2018-02-10T19:27:30.866Z,5.80
2018-02-10T19:29:59.072Z,5.50
2018-02-10T19:32:26.538Z,5.53
2018-02-10T19:34:53.989Z,7.20
2018-02-10T19:37:22.221Z,6.20
2018-02-10T19:39:49.686Z,6.73
2018-02-10T19:42:17.852Z,6.03
2018-02-10T19:44:45.304Z,6.93
2018-02-10T19:47:13.537Z,6.57
2018-02-10T19:49:40.987Z,8.60
2018-02-10T19:52:08.437Z,7.03
2018-02-10T19:54:36.673Z,6.53
2018-02-10T19:57:04.112Z,6.13
2018-02-10T19:59:31.566Z,5.93
2018-02-10T20:02:00.661Z,7.53
2018-02-10T20:04:28.118Z,5.97
2018-02-10T20:06:55.590Z,5.40
2018-02-10T20:09:23.060Z,6.40
2018-02-10T20:11:50.684Z,5.73
2018-02-10T20:14:18.129Z,6.30
2018-02-10T20:16:45.572Z,5.10
2018-02-10T20:19:13.065Z,6.47
2018-02-10T20:21:41.301Z,6.17
2018-02-10T20:24:09.477Z,5.57
2018-02-10T20:26:36.914Z,6.50
2018-02-10T20:29:05.333Z,6.73
2018-02-10T20:31:32.781Z,6.33
2018-02-10T20:34:01.026Z,6.60
2018-02-10T20:36:28.473Z,7.90
2018-02-10T20:38:56.280Z,5.40
2018-02-10T20:41:23.924Z,6.50
2018-02-10T20:43:51.412Z,6.40
2018-02-10T20:46:18.856Z,6.33
2018-02-10T20:48:46.353Z,6.90
2018-02-10T20:51:13.849Z,6.47
2018-02-10T20:53:41.402Z,6.87
2018-02-10T20:56:08.938Z,5.37
2018-02-10T20:58:36.544Z,5.37
2018-02-10T21:01:05.052Z,5.87
2018-02-10T21:03:32.608Z,5.57
2018-02-10T21:06:00.108Z,6.47
2018-02-10T21:08:27.623Z,6.30
2018-02-10T21:10:55.888Z,6.47
2018-02-10T21:13:23.376Z,5.53
2018-02-10T21:15:51.645Z,6.53
2018-02-10T21:18:19.897Z,5.93
2018-02-10T21:20:47.602Z,6.00
2018-02-10T21:23:15.393Z,6.13
2018-02-10T21:25:42.834Z,6.43
2018-02-10T21:28:10.305Z,6.50
2018-02-10T21:30:37.765Z,6.40
2018-02-10T21:33:05.387Z,7.23
2018-02-10T21:35:32.901Z,5.30
2018-02-10T21:38:00.396Z,5.67
2018-02-10T21:40:27.858Z,5.57
2018-02-10T21:42:55.327Z,5.97
2018-02-10T21:45:22.776Z,5.90
2018-02-10T21:47:50.412Z,6.20
2018-02-10T21:50:18.059Z,5.60
2018-02-10T21:52:45.603Z,6.17
2018-02-10T21:55:13.066Z,5.60
2018-02-10T21:57:40.564Z,5.10
2018-02-10T22:00:08.057Z,5.20
2018-02-10T22:02:35.653Z,5.33
2018-02-10T22:05:03.923Z,5.33
2018-02-10T22:07:31.465Z,5.20
2018-02-10T22:09:58.967Z,5.47
2018-02-10T22:12:27.425Z,5.00
2018-02-10T22:14:54.896Z,4.90
2018-02-10T22:17:22.361Z,5.07
2018-02-10T22:19:49.816Z,5.50
2018-02-10T22:22:18.114Z,5.50
2018-02-10T22:24:45.552Z,4.90
2018-02-10T22:27:13.800Z,4.77
2018-02-10T22:29:41.269Z,4.77
2018-02-10T22:32:08.858Z,5.00
2018-02-10T22:34:36.321Z,5.33
2018-02-10T22:37:03.872Z,5.20
2018-02-10T22:39:31.362Z,6.20
2018-02-10T22:41:58.871Z,5.30
2018-02-10T22:44:26.350Z,5.93
2018-02-10T22:46:54.613Z,6.30
2018-02-10T22:49:22.062Z,5.90
2018-02-10T22:51:50.308Z,4.97
2018-02-10T22:54:17.764Z,5.60
2018-02-10T22:56:46.077Z,5.57
2018-02-10T22:59:13.748Z,5.00
2018-02-10T23:01:41.930Z,4.60
2018-02-10T23:04:10.145Z,5.30
2018-02-10T23:06:37.705Z,4.70
2018-02-10T23:09:05.188Z,6.00
2018-02-10T23:11:32.665Z,6.13
2018-02-10T23:14:00.122Z,6.27
2018-02-10T23:16:27.662Z,5.60
2018-02-10T23:18:55.901Z,4.70
2018-02-10T23:21:23.446Z,4.60
2018-02-10T23:23:50.892Z,5.20
2018-02-10T23:26:19.140Z,5.40
2018-02-10T23:28:46.585Z,4.70
2018-02-10T23:31:14.042Z,5.10
2018-02-10T23:33:41.520Z,5.73
2018-02-10T23:36:09.003Z,5.47
2018-02-10T23:38:36.441Z,5.40
2018-02-10T23:41:04.680Z,5.83
2018-02-10T23:43:32.125Z,5.03
2018-02-10T23:45:59.624Z,6.43
2018-02-10T23:48:27.145Z,5.97
2018-02-10T23:50:55.439Z,5.13
2018-02-10T23:53:22.909Z,5.90
2018-02-10T23:55:51.163Z,5.90
2018-02-10T23:58:18.608Z,5.60
